createdAt,value
2019-05-22T00:02:34.551Z,22.37
2019-05-22T00:16:18.034Z,20.57
2019-05-22T00:18:49.431Z,22.17
2019-05-22T00:21:20.625Z,24.23
2019-05-22T00:23:52.403Z,22.00
2019-05-22T00:26:22.061Z,23.90
2019-05-22T00:28:51.581Z,20.77
2019-05-22T00:31:21.937Z,26.97
2019-05-22T00:33:51.957Z,24.73
2019-05-22T00:36:21.311Z,24.10
2019-05-22T00:38:50.893Z,23.20
2019-05-22T00:41:23.164Z,25.23
2019-05-22T00:43:53.000Z,25.17
2019-05-22T00:46:24.492Z,23.70
2019-05-22T00:48:54.262Z,27.30
2019-05-22T00:51:41.345Z,23.33
2019-05-22T00:54:38.371Z,24.67
2019-05-22T00:57:14.984Z,24.80
2019-05-22T00:59:45.208Z,24.47
2019-05-22T01:02:18.795Z,27.47
2019-05-22T01:04:49.502Z,28.73
2019-05-22T01:07:18.921Z,27.53
2019-05-22T01:09:52.173Z,28.60
2019-05-22T01:12:29.360Z,26.53
2019-05-22T01:15:04.722Z,28.30
2019-05-22T01:17:36.730Z,28.53
2019-05-22T01:20:09.893Z,29.90
2019-05-22T01:22:39.579Z,29.03
2019-05-22T01:25:11.915Z,28.20
2019-05-22T01:27:42.234Z,29.67
2019-05-22T01:30:18.836Z,29.23
2019-05-22T01:32:51.954Z,33.40
2019-05-22T01:35:26.941Z,28.63
2019-05-22T01:37:57.612Z,32.40
2019-05-22T01:40:41.499Z,35.10
2019-05-22T01:43:14.160Z,35.07
2019-05-22T01:45:52.492Z,32.50
2019-05-22T01:48:27.418Z,32.83
2019-05-22T01:50:57.694Z,31.23
2019-05-22T01:53:38.524Z,39.27
2019-05-22T01:56:11.274Z,34.83
2019-05-22T01:58:42.410Z,34.03
2019-05-22T02:01:19.162Z,35.23
2019-05-22T02:03:48.185Z,34.90
2019-05-22T02:06:19.320Z,33.40
2019-05-22T02:08:53.086Z,33.93
2019-05-22T02:11:24.510Z,34.67
2019-05-22T02:14:01.392Z,36.97
2019-05-22T02:16:31.981Z,37.40
2019-05-22T02:19:03.066Z,33.90
2019-05-22T02:21:32.682Z,36.60
2019-05-22T02:24:01.909Z,31.27
2019-05-22T02:26:32.696Z,36.10
2019-05-22T02:29:02.845Z,36.27
2019-05-22T02:31:34.161Z,33.00
2019-05-22T02:34:05.518Z,30.90
2019-05-22T02:36:37.005Z,34.27
2019-05-22T02:39:13.399Z,37.57
2019-05-22T02:41:47.179Z,35.97
2019-05-22T02:44:16.383Z,34.40
2019-05-22T02:46:46.267Z,39.23
2019-05-22T02:49:18.358Z,39.17
2019-05-22T02:51:48.639Z,38.17
2019-05-22T02:54:18.369Z,36.60
2019-05-22T02:56:47.521Z,36.30
2019-05-22T02:59:18.079Z,36.53
2019-05-22T03:01:47.528Z,36.40
2019-05-22T03:04:18.978Z,34.43
2019-05-22T03:06:48.857Z,37.17
2019-05-22T03:09:25.737Z,33.27
2019-05-22T03:12:03.942Z,33.87
2019-05-22T03:14:34.987Z,34.87
2019-05-22T03:17:08.466Z,37.47
2019-05-22T03:19:42.700Z,35.17
2019-05-22T03:22:26.725Z,35.37
2019-05-22T03:24:57.911Z,32.77
2019-05-22T03:27:47.972Z,36.00
2019-05-22T03:30:22.187Z,32.73
2019-05-22T03:32:52.134Z,31.60
2019-05-22T03:35:25.173Z,31.77
2019-05-22T03:37:56.284Z,29.57
2019-05-22T03:40:28.120Z,33.07
2019-05-22T03:42:58.115Z,37.33
2019-05-22T03:45:28.160Z,34.90
2019-05-22T03:47:59.122Z,39.20
2019-05-22T03:50:29.531Z,35.33
2019-05-22T03:53:01.544Z,30.80
2019-05-22T03:55:30.768Z,30.50
2019-05-22T03:58:00.408Z,29.07
2019-05-22T04:00:30.838Z,37.00
2019-05-22T04:03:00.509Z,34.20
2019-05-22T04:05:30.835Z,29.97
2019-05-22T04:07:59.749Z,35.40
2019-05-22T04:10:34.274Z,38.17
2019-05-22T04:13:04.660Z,31.77
2019-05-22T04:15:35.751Z,38.53
2019-05-22T04:18:16.260Z,35.83
2019-05-22T04:20:46.081Z,38.43
2019-05-22T04:23:15.414Z,32.40
2019-05-22T04:25:44.614Z,28.70
2019-05-22T04:28:13.464Z,26.83
2019-05-22T04:30:44.004Z,26.40
2019-05-22T04:33:13.935Z,25.53
2019-05-22T04:35:43.196Z,34.03
2019-05-22T04:38:12.556Z,29.97
2019-05-22T04:40:55.563Z,29.83
2019-05-22T04:43:26.461Z,30.03
2019-05-22T04:45:57.131Z,32.70
2019-05-22T04:48:29.389Z,33.40
2019-05-22T04:51:04.152Z,32.83
2019-05-22T04:53:34.143Z,31.50
2019-05-22T04:56:03.279Z,30.77
2019-05-22T04:58:33.710Z,32.70
2019-05-22T05:01:02.842Z,30.07
2019-05-22T05:03:32.703Z,25.67
2019-05-22T05:06:06.665Z,25.97
2019-05-22T05:08:35.288Z,23.93
2019-05-22T05:11:05.300Z,24.43
2019-05-22T05:13:34.411Z,28.80
2019-05-22T05:16:04.147Z,33.97
2019-05-22T05:18:34.329Z,27.43
2019-05-22T05:21:03.250Z,31.57
2019-05-22T05:23:32.359Z,23.37
2019-05-22T05:26:02.689Z,25.30
2019-05-22T05:28:31.897Z,21.97
2019-05-22T05:31:00.880Z,22.77
2019-05-22T05:33:33.254Z,22.60
2019-05-22T05:36:02.426Z,19.03
2019-05-22T05:38:37.170Z,25.47
2019-05-22T05:41:06.859Z,21.77
2019-05-22T05:43:36.149Z,22.43
2019-05-22T05:46:05.279Z,25.60
2019-05-22T05:48:36.079Z,19.40
2019-05-22T05:51:36.163Z,21.70
2019-05-22T05:54:15.416Z,25.07
2019-05-22T05:56:52.398Z,23.20
2019-05-22T05:59:24.592Z,22.60
2019-05-22T06:01:55.916Z,26.47
2019-05-22T06:04:39.080Z,22.23
2019-05-22T06:07:23.051Z,22.90
2019-05-22T06:10:32.736Z,24.87
2019-05-22T06:13:03.449Z,32.80
2019-05-22T06:15:46.937Z,27.40
2019-05-22T06:18:41.292Z,26.23
2019-05-22T06:21:10.665Z,23.20
2019-05-22T06:24:20.030Z,26.17
2019-05-22T06:27:09.037Z,19.43
2019-05-22T06:29:53.486Z,20.27
2019-05-22T06:33:03.017Z,23.50
2019-05-22T06:35:37.824Z,17.83
2019-05-22T06:38:52.747Z,19.93
2019-05-22T06:41:25.542Z,23.67
2019-05-22T06:44:37.115Z,19.43
2019-05-22T06:47:19.935Z,18.20
2019-05-22T06:49:53.058Z,19.77
2019-05-22T06:52:23.537Z,20.13
2019-05-22T06:54:58.629Z,19.73
2019-05-22T06:57:32.137Z,21.83
2019-05-22T07:00:14.066Z,19.70
2019-05-22T07:02:35.497Z,25.03
2019-05-22T07:05:07.110Z,19.60
2019-05-22T07:07:36.414Z,19.27
2019-05-22T07:10:08.302Z,24.37
2019-05-22T07:12:43.947Z,19.70
2019-05-22T07:15:58.280Z,23.90
2019-05-22T07:18:30.700Z,26.80
2019-05-22T07:24:40.766Z,21.67
2019-05-22T07:27:28.283Z,22.00
2019-05-22T07:29:58.114Z,25.70
2019-05-22T07:32:30.900Z,26.83
2019-05-22T07:34:58.801Z,22.33
2019-05-22T07:37:29.143Z,22.50
2019-05-22T07:39:57.970Z,19.77
2019-05-22T07:42:26.933Z,24.10
2019-05-22T07:44:55.887Z,20.57
2019-05-22T07:47:25.377Z,19.67
2019-05-22T07:49:54.626Z,24.37
2019-05-22T07:52:24.284Z,20.67
2019-05-22T07:54:54.035Z,22.17
2019-05-22T07:57:24.640Z,21.60
2019-05-22T07:59:54.425Z,23.80
2019-05-22T08:02:25.558Z,25.30
2019-05-22T08:04:54.916Z,24.37
2019-05-22T08:07:26.970Z,27.03
2019-05-22T08:09:56.866Z,26.50
2019-05-22T08:12:26.525Z,23.90
2019-05-22T08:14:55.815Z,23.97
2019-05-22T08:17:26.084Z,22.80
2019-05-22T08:19:55.264Z,19.43
2019-05-22T08:22:24.642Z,19.50
2019-05-22T08:24:53.521Z,19.57
2019-05-22T08:27:23.697Z,23.47
2019-05-22T08:29:52.696Z,24.20
2019-05-22T08:32:24.174Z,22.13
2019-05-22T08:34:53.594Z,19.33
2019-05-22T08:37:27.824Z,19.43
2019-05-22T08:39:56.797Z,19.90
2019-05-22T08:42:26.752Z,18.03
2019-05-22T08:44:56.552Z,19.27
2019-05-22T08:47:25.863Z,20.37
2019-05-22T08:49:55.162Z,19.60
2019-05-22T08:52:24.896Z,24.13
2019-05-22T08:54:54.393Z,19.67
2019-05-22T08:57:25.071Z,21.07
2019-05-22T08:59:54.010Z,17.73
2019-05-22T09:02:23.850Z,19.57
2019-05-22T09:04:53.166Z,19.37
2019-05-22T09:07:22.914Z,20.50
2019-05-22T09:09:51.981Z,19.23
2019-05-22T09:12:20.818Z,17.30
2019-05-22T09:14:50.046Z,21.50
2019-05-22T09:17:19.240Z,21.27
2019-05-22T09:19:48.541Z,15.60
2019-05-22T09:22:18.028Z,18.23
2019-05-22T09:24:47.883Z,17.97
2019-05-22T09:27:17.308Z,14.73
2019-05-22T09:29:46.206Z,15.83
2019-05-22T09:32:15.396Z,14.87
2019-05-22T09:34:44.570Z,14.70
2019-05-22T09:37:13.737Z,14.50
2019-05-22T09:39:42.713Z,15.27
2019-05-22T09:42:11.646Z,15.27
2019-05-22T09:44:40.835Z,16.53
2019-05-22T09:47:10.085Z,14.07
2019-05-22T09:49:51.802Z,16.37
2019-05-22T09:52:20.945Z,15.60
2019-05-22T09:54:49.989Z,16.37
2019-05-22T09:57:19.175Z,10.57
2019-05-22T09:59:48.318Z,14.87
2019-05-22T10:02:17.370Z,10.43
2019-05-22T10:04:46.638Z,11.17
2019-05-22T10:07:15.602Z,15.67
2019-05-22T10:09:44.812Z,10.53
2019-05-22T10:12:13.845Z,16.03
2019-05-22T10:14:43.167Z,10.97
2019-05-22T10:17:13.097Z,12.07
2019-05-22T10:19:42.770Z,12.60
2019-05-22T10:22:12.498Z,11.63
2019-05-22T10:24:42.052Z,10.33
2019-05-22T10:27:11.565Z,12.87
2019-05-22T10:29:40.966Z,12.80
2019-05-22T10:32:11.282Z,10.67
2019-05-22T10:34:40.335Z,13.93
2019-05-22T10:37:10.850Z,12.87
2019-05-22T10:39:40.117Z,10.30
2019-05-22T10:42:09.395Z,10.97
2019-05-22T10:44:38.673Z,8.83
2019-05-22T10:47:08.080Z,10.70
2019-05-22T10:49:37.659Z,12.00
2019-05-22T10:52:07.530Z,6.63
2019-05-22T10:54:37.069Z,7.63
2019-05-22T10:57:08.127Z,9.53
2019-05-22T10:59:37.733Z,9.80
2019-05-22T11:02:08.166Z,9.20
2019-05-22T11:04:38.263Z,9.00
2019-05-22T11:07:07.785Z,8.40
2019-05-22T11:09:37.158Z,8.83
2019-05-22T11:12:06.735Z,11.40
2019-05-22T11:14:36.032Z,9.67
2019-05-22T11:17:04.968Z,8.70
2019-05-22T11:19:34.094Z,11.27
2019-05-22T11:22:04.078Z,7.07
2019-05-22T11:24:33.302Z,9.00
2019-05-22T11:27:02.354Z,9.10
2019-05-22T11:29:34.427Z,7.63
2019-05-22T11:32:03.964Z,6.53
2019-05-22T11:34:33.590Z,6.10
2019-05-22T11:37:04.948Z,8.57
2019-05-22T11:39:39.541Z,8.13
2019-05-22T11:42:05.929Z,9.00
2019-05-22T11:44:35.039Z,8.67
2019-05-22T11:47:04.692Z,8.97
2019-05-22T11:49:33.893Z,9.77
2019-05-22T11:52:03.513Z,8.20
2019-05-22T11:54:32.498Z,11.90
2019-05-22T11:57:01.626Z,6.80
2019-05-22T11:59:30.711Z,7.63
2019-05-22T12:01:59.897Z,8.17
2019-05-22T12:04:44.408Z,9.47
2019-05-22T12:06:59.723Z,9.37
2019-05-22T12:09:30.813Z,8.73
2019-05-22T12:12:00.119Z,4.60
2019-05-22T12:14:29.271Z,7.57
2019-05-22T12:16:59.086Z,9.40
2019-05-22T12:19:28.343Z,6.40
2019-05-22T12:21:58.373Z,8.33
2019-05-22T12:24:35.710Z,5.13
2019-05-22T12:26:58.419Z,11.03
2019-05-22T12:29:27.845Z,8.63
2019-05-22T12:31:56.766Z,8.33
2019-05-22T12:34:26.111Z,6.93
2019-05-22T12:37:00.836Z,6.97
2019-05-22T12:39:35.156Z,6.97
2019-05-22T12:42:06.006Z,7.00
2019-05-22T12:44:35.781Z,7.97
2019-05-22T12:47:05.038Z,10.03
2019-05-22T12:56:31.428Z,8.53
2019-05-22T12:59:02.043Z,9.13
2019-05-22T13:01:31.315Z,7.93
2019-05-22T13:04:02.997Z,5.67
2019-05-22T13:06:34.347Z,8.63
2019-05-22T13:09:06.464Z,6.07
2019-05-22T13:11:39.861Z,5.63
2019-05-22T13:14:10.318Z,7.40
2019-05-22T13:16:47.348Z,9.43
2019-05-22T13:19:13.246Z,9.67
2019-05-22T13:21:43.934Z,5.93
2019-05-22T13:24:23.129Z,8.20
2019-05-22T13:26:52.460Z,5.87
2019-05-22T13:29:22.816Z,7.27
2019-05-22T13:31:52.539Z,7.17
2019-05-22T13:34:23.787Z,6.73
2019-05-22T13:36:56.723Z,4.63
2019-05-22T13:39:26.062Z,4.53
2019-05-22T13:41:55.564Z,5.10
2019-05-22T13:44:25.336Z,8.33
2019-05-22T13:46:54.448Z,3.63
2019-05-22T13:49:24.872Z,6.03
2019-05-22T13:51:55.029Z,7.37
2019-05-22T13:54:26.379Z,9.33
2019-05-22T13:56:55.975Z,5.10
2019-05-22T13:59:26.188Z,7.00
2019-05-22T14:01:55.554Z,6.60
2019-05-22T14:04:24.594Z,7.00
2019-05-22T14:06:54.099Z,6.63
2019-05-22T14:09:24.076Z,5.87
2019-05-22T14:11:54.518Z,6.20
2019-05-22T14:14:24.335Z,6.40
2019-05-22T14:16:53.834Z,5.03
2019-05-22T14:19:23.191Z,3.63
2019-05-22T14:21:52.369Z,5.13
2019-05-22T14:24:21.351Z,6.00
2019-05-22T14:26:50.708Z,3.80
2019-05-22T14:29:20.068Z,5.60
2019-05-22T14:31:49.400Z,4.73
2019-05-22T14:34:18.595Z,4.33
2019-05-22T14:36:48.326Z,4.20
2019-05-22T14:39:17.592Z,5.40
2019-05-22T14:41:46.472Z,5.17
2019-05-22T14:44:15.429Z,6.70
2019-05-22T14:46:45.262Z,6.20
2019-05-22T14:49:15.235Z,4.07
2019-05-22T14:51:44.357Z,4.77
2019-05-22T14:54:13.288Z,6.80
2019-05-22T14:56:43.815Z,4.37
2019-05-22T14:59:12.903Z,5.83
2019-05-22T15:01:41.919Z,6.00
2019-05-22T15:04:10.874Z,5.77
2019-05-22T15:06:40.723Z,4.90
2019-05-22T15:09:10.188Z,5.93
2019-05-22T15:11:39.961Z,6.50
2019-05-22T15:14:08.848Z,3.97
2019-05-22T15:16:37.769Z,5.63
2019-05-22T15:19:07.010Z,5.27
2019-05-22T15:21:36.220Z,4.03
2019-05-22T15:24:06.327Z,4.03
2019-05-22T15:26:35.462Z,4.20
2019-05-22T15:29:05.442Z,3.77
2019-05-22T15:31:34.305Z,4.87
2019-05-22T15:34:04.168Z,5.17
2019-05-22T15:36:34.035Z,5.53
2019-05-22T15:39:05.275Z,6.90
2019-05-22T15:41:34.700Z,5.47
2019-05-22T15:44:05.967Z,5.77
2019-05-22T15:46:36.014Z,5.43
2019-05-22T15:49:08.799Z,6.63
2019-05-22T15:51:39.113Z,4.23
2019-05-22T15:54:10.467Z,5.40
2019-05-22T15:56:41.205Z,3.10
2019-05-22T15:59:12.785Z,2.97
2019-05-22T16:01:44.301Z,4.77
2019-05-22T16:04:15.670Z,3.35
2019-05-22T16:06:45.700Z,2.75
2019-05-22T16:09:17.273Z,5.92
2019-05-22T16:11:50.294Z,3.98
2019-05-22T16:14:21.115Z,4.83
2019-05-22T16:16:52.550Z,4.08
2019-05-22T16:19:26.144Z,4.33
2019-05-22T16:21:59.631Z,3.52
2019-05-22T16:24:28.989Z,2.55
2019-05-22T16:26:58.630Z,5.20
2019-05-22T16:29:28.610Z,7.80
2019-05-22T16:32:00.396Z,4.65
2019-05-22T16:34:30.317Z,4.10
2019-05-22T16:37:03.513Z,4.12
2019-05-22T16:39:30.940Z,3.67
2019-05-22T16:42:00.340Z,3.45
2019-05-22T16:44:29.574Z,5.05
2019-05-22T16:46:59.191Z,3.58
2019-05-22T16:49:28.594Z,4.35
2019-05-22T16:51:58.710Z,4.37
2019-05-22T16:54:30.084Z,4.37
2019-05-22T16:56:59.130Z,6.97
2019-05-22T16:59:28.785Z,3.72
2019-05-22T17:02:00.651Z,3.17
2019-05-22T17:04:29.949Z,1.77
2019-05-22T17:07:00.499Z,5.73
2019-05-22T17:09:30.694Z,3.17
2019-05-22T17:12:04.442Z,3.00
2019-05-22T17:14:32.194Z,3.85
2019-05-22T17:17:03.696Z,4.70
2019-05-22T17:19:33.153Z,2.83
2019-05-22T17:22:03.839Z,3.47
2019-05-22T17:24:34.327Z,3.25
2019-05-22T17:27:04.483Z,4.05
2019-05-22T17:29:34.250Z,6.55
2019-05-22T17:32:05.239Z,6.47
2019-05-22T17:34:37.289Z,5.25
2019-05-22T17:37:11.448Z,4.33
2019-05-22T17:39:44.221Z,3.80
2019-05-22T17:42:15.902Z,5.97
2019-05-22T17:44:47.701Z,2.97
2019-05-22T17:47:17.173Z,4.63
2019-05-22T17:49:47.436Z,3.73
2019-05-22T17:52:18.771Z,8.83
2019-05-22T17:54:50.093Z,4.23
2019-05-22T17:57:19.649Z,7.10
2019-05-22T17:59:48.946Z,5.20
2019-05-22T18:02:20.163Z,4.60
2019-05-22T18:04:49.981Z,3.53
2019-05-22T18:07:19.849Z,4.50
2019-05-22T18:09:50.024Z,4.03
2019-05-22T18:12:19.276Z,2.83
2019-05-22T18:14:49.010Z,4.93
2019-05-22T18:17:18.692Z,5.70
2019-05-22T18:19:48.357Z,4.93
2019-05-22T18:22:18.385Z,4.03
2019-05-22T18:24:48.674Z,4.43
2019-05-22T18:27:17.898Z,6.10
2019-05-22T18:29:46.939Z,6.13
2019-05-22T18:32:16.193Z,6.13
2019-05-22T18:34:45.461Z,5.47
2019-05-22T18:37:14.810Z,4.97
2019-05-22T18:39:43.998Z,5.43
2019-05-22T18:42:13.371Z,4.43
2019-05-22T18:44:42.292Z,4.50
2019-05-22T18:47:11.850Z,8.47
2019-05-22T18:49:41.315Z,6.43
2019-05-22T18:52:13.504Z,3.20
2019-05-22T18:54:42.494Z,7.47
2019-05-22T18:57:12.582Z,3.83
2019-05-22T19:04:06.350Z,6.30
2019-05-22T19:06:36.718Z,2.90
2019-05-22T19:09:09.352Z,4.97
2019-05-22T19:11:38.787Z,6.03
2019-05-22T19:14:08.303Z,4.20
2019-05-22T19:16:37.719Z,2.83
2019-05-22T19:19:06.843Z,6.00
2019-05-22T19:21:35.821Z,2.73
2019-05-22T19:24:05.193Z,3.13
2019-05-22T19:26:34.382Z,4.70
2019-05-22T19:29:04.483Z,8.87
2019-05-22T19:31:33.592Z,5.47
2019-05-22T19:34:02.895Z,4.07
2019-05-22T19:36:31.890Z,5.93
2019-05-22T19:39:06.069Z,3.40
2019-05-22T19:41:35.687Z,6.63
2019-05-22T19:44:05.557Z,6.97
2019-05-22T19:46:34.510Z,3.53
2019-05-22T19:49:04.300Z,2.80
2019-05-22T19:51:33.815Z,2.63
2019-05-22T19:54:02.857Z,3.33
2019-05-22T19:56:52.693Z,4.67
2019-05-22T19:59:22.699Z,5.90
2019-05-22T20:01:53.082Z,4.23
2019-05-22T20:04:21.978Z,5.50
2019-05-22T20:06:51.575Z,5.47
2019-05-22T20:09:20.463Z,4.60
2019-05-22T20:11:49.885Z,5.80
2019-05-22T20:14:19.029Z,3.37
2019-05-22T20:16:48.123Z,4.20
2019-05-22T20:19:17.556Z,5.57
2019-05-22T20:21:47.219Z,4.80
2019-05-22T20:24:27.449Z,5.53
2019-05-22T20:26:57.218Z,4.47
2019-05-22T20:29:26.741Z,4.20
2019-05-22T20:31:56.168Z,4.53
2019-05-22T20:34:25.494Z,4.57
2019-05-22T20:36:58.397Z,6.23
2019-05-22T20:39:29.645Z,7.80
2019-05-22T20:41:58.860Z,5.60
2019-05-22T20:44:28.565Z,4.87
2019-05-22T20:46:58.811Z,8.47
2019-05-22T20:49:40.516Z,6.23
2019-05-22T20:52:14.597Z,7.00
2019-05-22T20:54:49.641Z,5.13
2019-05-22T20:57:20.490Z,5.27
2019-05-22T20:59:50.065Z,7.03
2019-05-22T21:02:19.901Z,4.50
2019-05-22T21:04:51.444Z,7.70
2019-05-22T21:07:26.681Z,4.50
2019-05-22T21:09:56.171Z,5.90
2019-05-22T21:12:25.905Z,4.93
2019-05-22T21:14:54.885Z,5.27
2019-05-22T21:17:25.200Z,5.33
2019-05-22T21:19:54.432Z,7.43
2019-05-22T21:22:25.221Z,5.00
2019-05-22T21:24:54.235Z,8.20
2019-05-22T21:27:30.141Z,4.90
2019-05-22T21:29:59.589Z,5.43
2019-05-22T21:32:28.468Z,4.43
2019-05-22T21:35:03.466Z,5.67
2019-05-22T21:37:33.228Z,3.87
2019-05-22T21:40:05.699Z,5.37
2019-05-22T21:42:37.574Z,4.20
2019-05-22T21:45:07.135Z,4.73
2019-05-22T21:47:38.549Z,6.67
2019-05-22T21:53:48.707Z,6.80
2019-05-22T21:56:17.821Z,7.80
2019-05-22T21:58:47.425Z,5.90
2019-05-22T22:01:25.470Z,4.30
2019-05-22T22:04:04.398Z,6.87
2019-05-22T22:06:33.517Z,4.90
2019-05-22T22:12:31.130Z,5.63
2019-05-22T22:15:00.078Z,3.73
2019-05-22T22:17:30.662Z,5.37
2019-05-22T22:20:12.800Z,7.00
2019-05-22T22:22:42.426Z,7.27
2019-05-22T22:25:13.398Z,4.50
2019-05-22T22:27:43.083Z,3.77
2019-05-22T22:30:22.574Z,3.90
2019-05-22T22:32:51.669Z,6.10
2019-05-22T22:35:40.647Z,5.43
2019-05-22T22:38:10.258Z,4.70
2019-05-22T22:40:40.945Z,5.27
2019-05-22T22:43:12.558Z,4.97
2019-05-22T22:45:56.434Z,3.60
2019-05-22T22:48:32.059Z,7.43
2019-05-22T22:51:01.097Z,9.20
2019-05-22T22:53:32.471Z,4.70
2019-05-22T22:56:01.556Z,5.87
2019-05-22T22:58:31.308Z,5.87
2019-05-22T23:01:02.663Z,5.83
2019-05-22T23:03:33.398Z,3.77
2019-05-22T23:06:03.638Z,6.03
2019-05-22T23:08:34.781Z,4.17
2019-05-22T23:11:06.851Z,6.00
2019-05-22T23:13:37.318Z,4.23
2019-05-22T23:16:06.555Z,6.90
2019-05-22T23:19:06.969Z,5.00
2019-05-22T23:21:36.206Z,4.50
2019-05-22T23:24:04.320Z,4.23
2019-05-22T23:26:36.075Z,5.30
2019-05-22T23:29:06.981Z,3.90
2019-05-22T23:31:36.122Z,4.77
2019-05-22T23:34:06.474Z,4.73
2019-05-22T23:36:36.055Z,3.67
2019-05-22T23:39:10.703Z,7.40
2019-05-22T23:41:40.963Z,4.20
2019-05-22T23:44:12.921Z,6.30
2019-05-22T23:46:42.996Z,4.83
2019-05-22T23:49:13.489Z,5.47
2019-05-22T23:51:43.467Z,7.23
2019-05-22T23:54:13.135Z,4.60
2019-05-22T23:56:44.393Z,5.20
